sensor_id;sensor_type;location;lat;lon;timestamp;pressure;altitude;pressure_sealevel;temperature;humidity
54554;BME280;40450;55.848;-3.572;2022-08-18T00:01:29;99288.62;;;18.16;59.43
54554;BME280;40450;55.848;-3.572;2022-08-18T00:04:00;99284.53;;;17.63;63.26
54554;BME280;40450;55.848;-3.572;2022-08-18T00:06:30;99280.05;;;17.53;63.36
54554;BME280;40450;55.848;-3.572;2022-08-18T00:09:03;99275.63;;;17.58;62.23
54554;BME280;40450;55.848;-3.572;2022-08-18T00:11:35;99270.13;;;17.50;64.01
54554;BME280;40450;55.848;-3.572;2022-08-18T00:14:01;99269.06;;;17.32;64.43
54554;BME280;40450;55.848;-3.572;2022-08-18T00:16:31;99270.80;;;17.79;62.96
54554;BME280;40450;55.848;-3.572;2022-08-18T00:19:02;99269.15;;;17.77;63.45
54554;BME280;40450;55.848;-3.572;2022-08-18T00:21:32;99271.04;;;17.76;63.60
54554;BME280;40450;55.848;-3.572;2022-08-18T00:24:03;99271.32;;;17.75;63.59
54554;BME280;40450;55.848;-3.572;2022-08-18T00:26:32;99269.07;;;17.65;64.28
54554;BME280;40450;55.848;-3.572;2022-08-18T00:29:03;99267.06;;;17.41;64.43
54554;BME280;40450;55.848;-3.572;2022-08-18T00:31:34;99267.38;;;16.87;66.99
54554;BME280;40450;55.848;-3.572;2022-08-18T00:34:04;99266.71;;;16.52;67.61
54554;BME280;40450;55.848;-3.572;2022-08-18T00:36:34;99264.39;;;16.33;69.10
54554;BME280;40450;55.848;-3.572;2022-08-18T00:39:04;99260.85;;;16.57;68.56
54554;BME280;40450;55.848;-3.572;2022-08-18T00:41:35;99259.59;;;16.57;68.51
54554;BME280;40450;55.848;-3.572;2022-08-18T00:44:05;99260.70;;;16.45;68.82
54554;BME280;40450;55.848;-3.572;2022-08-18T00:46:36;99262.90;;;16.55;68.57
54554;BME280;40450;55.848;-3.572;2022-08-18T00:49:06;99259.82;;;16.54;67.57
54554;BME280;40450;55.848;-3.572;2022-08-18T00:51:40;99253.59;;;16.91;67.42
54554;BME280;40450;55.848;-3.572;2022-08-18T00:54:10;99245.89;;;17.11;66.45
54554;BME280;40450;55.848;-3.572;2022-08-18T00:56:38;99239.71;;;17.37;65.86
54554;BME280;40450;55.848;-3.572;2022-08-18T00:59:10;99242.57;;;17.60;65.32
54554;BME280;40450;55.848;-3.572;2022-08-18T01:01:38;99241.68;;;17.26;65.96
54554;BME280;40450;55.848;-3.572;2022-08-18T01:04:13;99241.31;;;17.60;65.25
54554;BME280;40450;55.848;-3.572;2022-08-18T01:06:42;99241.83;;;17.21;66.75
54554;BME280;40450;55.848;-3.572;2022-08-18T01:09:09;99242.10;;;17.02;67.12
54554;BME280;40450;55.848;-3.572;2022-08-18T01:11:39;99238.65;;;17.04;67.50
54554;BME280;40450;55.848;-3.572;2022-08-18T01:14:10;99240.74;;;16.15;70.65
54554;BME280;40450;55.848;-3.572;2022-08-18T01:16:39;99235.31;;;16.16;71.15
54554;BME280;40450;55.848;-3.572;2022-08-18T01:19:10;99223.93;;;16.18;71.51
54554;BME280;40450;55.848;-3.572;2022-08-18T01:21:43;99226.02;;;16.18;71.77
54554;BME280;40450;55.848;-3.572;2022-08-18T01:24:11;99230.89;;;16.06;71.87
54554;BME280;40450;55.848;-3.572;2022-08-18T01:26:41;99232.73;;;16.20;72.01
54554;BME280;40450;55.848;-3.572;2022-08-18T01:29:11;99226.69;;;16.39;71.54
54554;BME280;40450;55.848;-3.572;2022-08-18T01:31:48;99230.03;;;15.98;72.65
54554;BME280;40450;55.848;-3.572;2022-08-18T01:34:12;99225.75;;;15.65;74.07
54554;BME280;40450;55.848;-3.572;2022-08-18T01:36:42;99224.34;;;15.88;73.67
54554;BME280;40450;55.848;-3.572;2022-08-18T01:39:18;99222.29;;;15.61;74.48
54554;BME280;40450;55.848;-3.572;2022-08-18T01:41:43;99218.05;;;16.02;73.39
54554;BME280;40450;55.848;-3.572;2022-08-18T01:44:13;99216.89;;;16.16;72.93
54554;BME280;40450;55.848;-3.572;2022-08-18T01:46:44;99214.54;;;16.37;72.13
54554;BME280;40450;55.848;-3.572;2022-08-18T01:49:14;99211.37;;;16.17;72.81
54554;BME280;40450;55.848;-3.572;2022-08-18T01:51:45;99205.52;;;16.70;72.11
54554;BME280;40450;55.848;-3.572;2022-08-18T01:54:15;99208.24;;;16.49;71.96
54554;BME280;40450;55.848;-3.572;2022-08-18T01:56:45;99201.16;;;16.70;71.04
54554;BME280;40450;55.848;-3.572;2022-08-18T01:59:16;99198.48;;;16.86;70.66
54554;BME280;40450;55.848;-3.572;2022-08-18T02:01:47;99203.46;;;16.56;71.24
54554;BME280;40450;55.848;-3.572;2022-08-18T02:04:17;99196.15;;;16.80;70.68
54554;BME280;40450;55.848;-3.572;2022-08-18T02:06:47;99190.86;;;16.53;71.34
54554;BME280;40450;55.848;-3.572;2022-08-18T02:09:17;99192.74;;;16.41;71.64
54554;BME280;40450;55.848;-3.572;2022-08-18T02:11:47;99193.90;;;16.51;71.48
54554;BME280;40450;55.848;-3.572;2022-08-18T02:14:18;99186.22;;;16.74;70.83
54554;BME280;40450;55.848;-3.572;2022-08-18T02:16:48;99181.69;;;16.94;70.33
54554;BME280;40450;55.848;-3.572;2022-08-18T02:19:18;99178.84;;;16.82;70.57
54554;BME280;40450;55.848;-3.572;2022-08-18T02:21:50;99172.70;;;16.65;71.22
54554;BME280;40450;55.848;-3.572;2022-08-18T02:24:19;99168.64;;;16.60;71.88
54554;BME280;40450;55.848;-3.572;2022-08-18T02:26:49;99169.31;;;16.57;72.20
54554;BME280;40450;55.848;-3.572;2022-08-18T02:29:20;99166.40;;;16.76;71.40
54554;BME280;40450;55.848;-3.572;2022-08-18T02:31:50;99159.39;;;16.44;72.31
54554;BME280;40450;55.848;-3.572;2022-08-18T02:34:21;99164.81;;;15.88;73.84
54554;BME280;40450;55.848;-3.572;2022-08-18T02:36:51;99160.10;;;16.03;73.65
54554;BME280;40450;55.848;-3.572;2022-08-18T02:39:21;99152.23;;;16.57;72.36
54554;BME280;40450;55.848;-3.572;2022-08-18T02:41:51;99145.45;;;16.79;72.17
54554;BME280;40450;55.848;-3.572;2022-08-18T02:44:22;99143.77;;;16.28;72.84
54554;BME280;40450;55.848;-3.572;2022-08-18T02:46:52;99136.85;;;16.15;72.99
54554;BME280;40450;55.848;-3.572;2022-08-18T02:49:22;99135.28;;;15.83;74.11
54554;BME280;40450;55.848;-3.572;2022-08-18T02:51:53;99128.59;;;16.21;73.37
54554;BME280;40450;55.848;-3.572;2022-08-18T02:54:24;99129.93;;;16.11;73.34
54554;BME280;40450;55.848;-3.572;2022-08-18T02:56:53;99131.71;;;15.97;73.90
54554;BME280;40450;55.848;-3.572;2022-08-18T02:59:25;99135.83;;;15.95;74.23
54554;BME280;40450;55.848;-3.572;2022-08-18T03:01:55;99135.65;;;15.55;75.47
54554;BME280;40450;55.848;-3.572;2022-08-18T03:04:27;99132.67;;;15.46;76.07
54554;BME280;40450;55.848;-3.572;2022-08-18T03:06:56;99131.08;;;15.49;76.10
54554;BME280;40450;55.848;-3.572;2022-08-18T03:09:25;99129.25;;;15.45;76.34
54554;BME280;40450;55.848;-3.572;2022-08-18T03:11:56;99126.69;;;15.43;76.55
54554;BME280;40450;55.848;-3.572;2022-08-18T03:14:26;99122.10;;;15.63;75.90
54554;BME280;40450;55.848;-3.572;2022-08-18T03:16:56;99114.10;;;15.75;75.80
54554;BME280;40450;55.848;-3.572;2022-08-18T03:19:28;99108.90;;;15.90;75.23
54554;BME280;40450;55.848;-3.572;2022-08-18T03:21:58;99104.79;;;15.84;75.23
54554;BME280;40450;55.848;-3.572;2022-08-18T03:24:28;99099.26;;;15.57;76.47
54554;BME280;40450;55.848;-3.572;2022-08-18T03:26:58;99094.85;;;15.40;77.13
54554;BME280;40450;55.848;-3.572;2022-08-18T03:29:28;99094.73;;;15.19;77.98
54554;BME280;40450;55.848;-3.572;2022-08-18T03:31:59;99091.57;;;15.21;77.98
54554;BME280;40450;55.848;-3.572;2022-08-18T03:34:30;99086.81;;;15.44;77.48
54554;BME280;40450;55.848;-3.572;2022-08-18T03:37:00;99078.78;;;15.37;77.73
54554;BME280;40450;55.848;-3.572;2022-08-18T03:39:29;99071.26;;;15.50;77.17
54554;BME280;40450;55.848;-3.572;2022-08-18T03:42:00;99069.03;;;15.67;76.87
54554;BME280;40450;55.848;-3.572;2022-08-18T03:44:32;99062.91;;;15.86;76.60
54554;BME280;40450;55.848;-3.572;2022-08-18T03:47:01;99066.76;;;15.75;76.62
54554;BME280;40450;55.848;-3.572;2022-08-18T03:49:31;99072.39;;;15.58;76.78
54554;BME280;40450;55.848;-3.572;2022-08-18T03:52:07;99063.40;;;15.92;76.09
54554;BME280;40450;55.848;-3.572;2022-08-18T03:54:32;99055.25;;;15.93;76.06
54554;BME280;40450;55.848;-3.572;2022-08-18T03:57:02;99053.96;;;16.05;75.49
54554;BME280;40450;55.848;-3.572;2022-08-18T03:59:32;99058.68;;;15.50;77.61
54554;BME280;40450;55.848;-3.572;2022-08-18T04:02:04;99055.71;;;15.42;78.15
54554;BME280;40450;55.848;-3.572;2022-08-18T04:04:34;99053.61;;;15.38;78.66
54554;BME280;40450;55.848;-3.572;2022-08-18T04:07:07;99051.49;;;15.26;79.31
54554;BME280;40450;55.848;-3.572;2022-08-18T04:09:35;99049.92;;;15.35;79.24
54554;BME280;40450;55.848;-3.572;2022-08-18T04:12:07;99048.57;;;15.24;79.64
54554;BME280;40450;55.848;-3.572;2022-08-18T04:14:35;99046.67;;;15.65;78.91
54554;BME280;40450;55.848;-3.572;2022-08-18T04:17:05;99047.28;;;15.41;79.58
54554;BME280;40450;55.848;-3.572;2022-08-18T04:19:41;99044.32;;;15.29;80.47
54554;BME280;40450;55.848;-3.572;2022-08-18T04:22:06;99033.33;;;15.47;80.36
54554;BME280;40450;55.848;-3.572;2022-08-18T04:24:36;99031.52;;;15.01;81.92
54554;BME280;40450;55.848;-3.572;2022-08-18T04:27:06;99029.42;;;15.41;81.12
54554;BME280;40450;55.848;-3.572;2022-08-18T04:29:37;99020.83;;;15.78;80.08
54554;BME280;40450;55.848;-3.572;2022-08-18T04:32:07;99014.25;;;15.64;80.60
54554;BME280;40450;55.848;-3.572;2022-08-18T04:34:43;99014.31;;;15.57;80.83
54554;BME280;40450;55.848;-3.572;2022-08-18T04:37:08;99015.19;;;15.53;81.27
54554;BME280;40450;55.848;-3.572;2022-08-18T04:39:39;99014.29;;;16.14;79.80
54554;BME280;40450;55.848;-3.572;2022-08-18T04:42:08;99014.01;;;15.72;80.65
54554;BME280;40450;55.848;-3.572;2022-08-18T04:44:39;99011.19;;;15.70;80.84
54554;BME280;40450;55.848;-3.572;2022-08-18T04:47:09;99011.82;;;15.79;80.88
54554;BME280;40450;55.848;-3.572;2022-08-18T04:49:39;99017.00;;;15.17;82.58
54554;BME280;40450;55.848;-3.572;2022-08-18T04:52:10;99016.76;;;14.82;83.91
54554;BME280;40450;55.848;-3.572;2022-08-18T04:54:41;99019.10;;;14.88;83.67
54554;BME280;40450;55.848;-3.572;2022-08-18T04:57:13;99018.97;;;15.13;83.29
54554;BME280;40450;55.848;-3.572;2022-08-18T04:59:44;99013.52;;;15.61;82.00
54554;BME280;40450;55.848;-3.572;2022-08-18T05:02:13;99017.13;;;15.37;82.59
54554;BME280;40450;55.848;-3.572;2022-08-18T05:04:43;99016.91;;;15.48;82.44
54554;BME280;40450;55.848;-3.572;2022-08-18T05:07:14;99016.10;;;15.29;82.82
54554;BME280;40450;55.848;-3.572;2022-08-18T05:09:42;99007.13;;;14.94;84.04
54554;BME280;40450;55.848;-3.572;2022-08-18T05:12:14;99003.63;;;15.08;83.76
54554;BME280;40450;55.848;-3.572;2022-08-18T05:14:45;99004.04;;;14.67;84.91
54554;BME280;40450;55.848;-3.572;2022-08-18T05:17:15;99000.81;;;14.77;85.07
54554;BME280;40450;55.848;-3.572;2022-08-18T05:19:44;98995.50;;;14.73;85.30
54554;BME280;40450;55.848;-3.572;2022-08-18T05:22:19;98994.04;;;14.91;84.62
54554;BME280;40450;55.848;-3.572;2022-08-18T05:24:46;98991.97;;;14.83;84.97
54554;BME280;40450;55.848;-3.572;2022-08-18T05:27:15;98989.75;;;14.95;84.73
54554;BME280;40450;55.848;-3.572;2022-08-18T05:29:46;98986.30;;;15.23;84.07
54554;BME280;40450;55.848;-3.572;2022-08-18T05:32:15;98986.23;;;15.16;83.79
54554;BME280;40450;55.848;-3.572;2022-08-18T05:34:45;98979.92;;;14.77;85.06
54554;BME280;40450;55.848;-3.572;2022-08-18T05:37:23;98976.99;;;14.97;84.60
54554;BME280;40450;55.848;-3.572;2022-08-18T05:39:53;98971.37;;;15.29;83.70
54554;BME280;40450;55.848;-3.572;2022-08-18T05:42:19;98965.75;;;15.40;83.33
54554;BME280;40450;55.848;-3.572;2022-08-18T05:44:54;98961.91;;;15.60;82.70
54554;BME280;40450;55.848;-3.572;2022-08-18T05:47:23;98961.16;;;15.80;81.96
54554;BME280;40450;55.848;-3.572;2022-08-18T05:49:55;98968.64;;;16.25;81.17
54554;BME280;40450;55.848;-3.572;2022-08-18T05:52:22;98969.43;;;15.94;81.39
54554;BME280;40450;55.848;-3.572;2022-08-18T05:54:55;98965.51;;;16.07;81.04
54554;BME280;40450;55.848;-3.572;2022-08-18T05:57:21;98960.09;;;15.47;82.90
54554;BME280;40450;55.848;-3.572;2022-08-18T05:59:51;98953.80;;;15.24;83.53
54554;BME280;40450;55.848;-3.572;2022-08-18T06:02:26;98950.84;;;15.00;84.32
54554;BME280;40450;55.848;-3.572;2022-08-18T06:04:53;98948.04;;;15.27;83.98
54554;BME280;40450;55.848;-3.572;2022-08-18T06:07:27;98947.99;;;15.07;84.66
54554;BME280;40450;55.848;-3.572;2022-08-18T06:09:56;98951.24;;;14.28;87.12
54554;BME280;40450;55.848;-3.572;2022-08-18T06:12:25;98945.63;;;14.14;87.94
54554;BME280;40450;55.848;-3.572;2022-08-18T06:14:50;98935.88;;;14.44;87.46
54554;BME280;40450;55.848;-3.572;2022-08-18T06:19:57;98923.78;;;14.93;86.05
54554;BME280;40450;55.848;-3.572;2022-08-18T06:22:29;98929.09;;;14.68;86.49
54554;BME280;40450;55.848;-3.572;2022-08-18T06:24:56;98932.88;;;14.49;87.20
54554;BME280;40450;55.848;-3.572;2022-08-18T06:27:39;98928.24;;;14.53;87.54
54554;BME280;40450;55.848;-3.572;2022-08-18T06:30:07;98924.24;;;14.68;87.26
54554;BME280;40450;55.848;-3.572;2022-08-18T06:32:30;98918.43;;;15.14;85.87
54554;BME280;40450;55.848;-3.572;2022-08-18T06:35:04;98921.25;;;14.62;87.28
54554;BME280;40450;55.848;-3.572;2022-08-18T06:37:29;98923.14;;;13.89;89.60
54554;BME280;40450;55.848;-3.572;2022-08-18T06:39:53;98917.38;;;14.35;88.72
54554;BME280;40450;55.848;-3.572;2022-08-18T06:42:25;98915.95;;;14.60;88.16
54554;BME280;40450;55.848;-3.572;2022-08-18T06:44:57;98915.52;;;15.08;86.54
54554;BME280;40450;55.848;-3.572;2022-08-18T06:47:33;98911.15;;;15.22;86.12
54554;BME280;40450;55.848;-3.572;2022-08-18T06:50:03;98912.05;;;15.65;84.85
54554;BME280;40450;55.848;-3.572;2022-08-18T06:52:33;98915.72;;;15.96;83.38
54554;BME280;40450;55.848;-3.572;2022-08-18T06:54:58;98913.17;;;15.39;84.75
54554;BME280;40450;55.848;-3.572;2022-08-18T06:57:30;98903.42;;;15.24;84.94
54554;BME280;40450;55.848;-3.572;2022-08-18T07:00:02;98898.38;;;15.66;84.72
54554;BME280;40450;55.848;-3.572;2022-08-18T07:02:40;98897.58;;;16.01;83.28
54554;BME280;40450;55.848;-3.572;2022-08-18T07:05:00;98897.76;;;15.26;85.05
54554;BME280;40450;55.848;-3.572;2022-08-18T07:07:31;98895.13;;;14.94;86.41
54554;BME280;40450;55.848;-3.572;2022-08-18T07:09:58;98895.89;;;14.99;86.36
54554;BME280;40450;55.848;-3.572;2022-08-18T07:12:29;98891.99;;;14.87;87.13
54554;BME280;40450;55.848;-3.572;2022-08-18T07:15:00;98886.40;;;14.89;87.02
54554;BME280;40450;55.848;-3.572;2022-08-18T07:17:31;98885.99;;;15.41;85.96
54554;BME280;40450;55.848;-3.572;2022-08-18T07:20:04;98881.32;;;15.82;84.21
54554;BME280;40450;55.848;-3.572;2022-08-18T07:22:30;98882.66;;;16.15;83.33
54554;BME280;40450;55.848;-3.572;2022-08-18T07:25:03;98881.01;;;15.66;84.41
54554;BME280;40450;55.848;-3.572;2022-08-18T07:30:02;98879.92;;;15.09;86.19
54554;BME280;40450;55.848;-3.572;2022-08-18T07:32:34;98875.09;;;15.45;85.69
54554;BME280;40450;55.848;-3.572;2022-08-18T07:35:04;98870.40;;;15.83;84.01
54554;BME280;40450;55.848;-3.572;2022-08-18T07:37:35;98868.18;;;15.54;85.01
54554;BME280;40450;55.848;-3.572;2022-08-18T07:40:05;98859.18;;;15.27;85.98
54554;BME280;40450;55.848;-3.572;2022-08-18T07:42:36;98861.10;;;14.95;87.12
54554;BME280;40450;55.848;-3.572;2022-08-18T07:45:05;98864.54;;;15.00;87.32
54554;BME280;40450;55.848;-3.572;2022-08-18T07:47:36;98862.82;;;15.17;87.00
54554;BME280;40450;55.848;-3.572;2022-08-18T07:50:03;98862.57;;;14.86;87.75
54554;BME280;40450;55.848;-3.572;2022-08-18T07:52:37;98857.27;;;15.04;87.55
54554;BME280;40450;55.848;-3.572;2022-08-18T07:55:07;98852.34;;;15.45;86.24
54554;BME280;40450;55.848;-3.572;2022-08-18T07:57:42;98853.09;;;15.59;85.64
54554;BME280;40450;55.848;-3.572;2022-08-18T08:00:11;98852.32;;;15.84;84.85
54554;BME280;40450;55.848;-3.572;2022-08-18T08:02:43;98847.64;;;16.14;83.78
54554;BME280;40450;55.848;-3.572;2022-08-18T08:05:10;98850.18;;;15.82;83.92
54554;BME280;40450;55.848;-3.572;2022-08-18T08:07:40;98845.64;;;15.81;83.92
54554;BME280;40450;55.848;-3.572;2022-08-18T08:12:41;98844.63;;;15.51;84.47
54554;BME280;40450;55.848;-3.572;2022-08-18T08:15:14;98842.20;;;15.01;86.24
54554;BME280;40450;55.848;-3.572;2022-08-18T08:17:41;98845.43;;;15.09;85.90
54554;BME280;40450;55.848;-3.572;2022-08-18T08:20:13;98842.89;;;14.60;86.88
54554;BME280;40450;55.848;-3.572;2022-08-18T08:22:38;98846.14;;;15.05;85.76
54554;BME280;40450;55.848;-3.572;2022-08-18T08:25:14;98846.88;;;14.63;86.81
54554;BME280;40450;55.848;-3.572;2022-08-18T08:27:47;98843.90;;;15.21;85.60
54554;BME280;40450;55.848;-3.572;2022-08-18T08:30:09;98844.39;;;15.06;85.59
54554;BME280;40450;55.848;-3.572;2022-08-18T08:32:41;98843.54;;;14.35;87.10
54554;BME280;40450;55.848;-3.572;2022-08-18T08:35:10;98842.31;;;15.06;85.59
54554;BME280;40450;55.848;-3.572;2022-08-18T08:37:41;98837.48;;;14.72;86.41
54554;BME280;40450;55.848;-3.572;2022-08-18T08:40:14;98835.90;;;14.56;87.22
54554;BME280;40450;55.848;-3.572;2022-08-18T08:42:41;98831.30;;;14.53;87.42
54554;BME280;40450;55.848;-3.572;2022-08-18T08:45:12;98825.34;;;14.48;87.91
54554;BME280;40450;55.848;-3.572;2022-08-18T08:47:44;98823.61;;;14.61;87.62
54554;BME280;40450;55.848;-3.572;2022-08-18T08:50:12;98818.05;;;14.40;87.96
54554;BME280;40450;55.848;-3.572;2022-08-18T08:52:43;98814.85;;;14.58;87.70
54554;BME280;40450;55.848;-3.572;2022-08-18T08:55:15;98810.47;;;14.36;88.66
54554;BME280;40450;55.848;-3.572;2022-08-18T08:57:54;98813.32;;;13.95;90.18
54554;BME280;40450;55.848;-3.572;2022-08-18T09:00:10;98804.77;;;13.63;91.35
54554;BME280;40450;55.848;-3.572;2022-08-18T09:02:53;98800.13;;;14.10;90.79
54554;BME280;40450;55.848;-3.572;2022-08-18T09:05:16;98802.93;;;13.99;91.53
54554;BME280;40450;55.848;-3.572;2022-08-18T09:07:51;98792.45;;;14.50;90.62
54554;BME280;40450;55.848;-3.572;2022-08-18T09:10:22;98791.56;;;14.18;91.54
54554;BME280;40450;55.848;-3.572;2022-08-18T09:12:54;98789.28;;;14.09;92.45
54554;BME280;40450;55.848;-3.572;2022-08-18T09:15:24;98789.06;;;13.72;93.57
54554;BME280;40450;55.848;-3.572;2022-08-18T09:17:56;98771.34;;;13.47;94.53
54554;BME280;40450;55.848;-3.572;2022-08-18T09:20:29;98772.62;;;13.65;94.14
54554;BME280;40450;55.848;-3.572;2022-08-18T09:22:46;98771.86;;;13.64;94.28
54554;BME280;40450;55.848;-3.572;2022-08-18T09:27:44;98770.50;;;13.65;93.95
54554;BME280;40450;55.848;-3.572;2022-08-18T09:32:55;98770.55;;;13.51;93.75
54554;BME280;40450;55.848;-3.572;2022-08-18T09:37:49;98757.77;;;13.71;92.95
54554;BME280;40450;55.848;-3.572;2022-08-18T09:40:17;98752.12;;;13.66;92.90
54554;BME280;40450;55.848;-3.572;2022-08-18T09:42:49;98754.16;;;13.08;93.90
54554;BME280;40450;55.848;-3.572;2022-08-18T09:52:47;98744.39;;;13.79;91.57
54554;BME280;40450;55.848;-3.572;2022-08-18T10:00:26;98751.53;;;13.27;92.05
54554;BME280;40450;55.848;-3.572;2022-08-18T10:05:25;98746.25;;;13.40;91.01
54554;BME280;40450;55.848;-3.572;2022-08-18T10:07:50;98736.47;;;13.54;90.44
54554;BME280;40450;55.848;-3.572;2022-08-18T10:10:23;98729.55;;;13.85;89.43
54554;BME280;40450;55.848;-3.572;2022-08-18T10:12:58;98730.40;;;13.90;89.04
54554;BME280;40450;55.848;-3.572;2022-08-18T10:15:28;98726.27;;;13.96;88.39
54554;BME280;40450;55.848;-3.572;2022-08-18T10:18:01;98726.17;;;13.46;90.41
54554;BME280;40450;55.848;-3.572;2022-08-18T10:20:29;98719.11;;;13.55;91.13
54554;BME280;40450;55.848;-3.572;2022-08-18T10:22:50;98718.88;;;13.83;90.63
54554;BME280;40450;55.848;-3.572;2022-08-18T10:25:30;98722.93;;;13.58;91.92
54554;BME280;40450;55.848;-3.572;2022-08-18T10:27:53;98719.88;;;13.95;91.85
54554;BME280;40450;55.848;-3.572;2022-08-18T10:32:51;98729.06;;;14.14;91.30
54554;BME280;40450;55.848;-3.572;2022-08-18T10:37:53;98724.38;;;14.87;90.04
54554;BME280;40450;55.848;-3.572;2022-08-18T10:40:23;98721.11;;;15.60;89.36
54554;BME280;40450;55.848;-3.572;2022-08-18T10:43:00;98718.46;;;15.74;87.34
54554;BME280;40450;55.848;-3.572;2022-08-18T10:45:25;98713.20;;;15.38;87.97
54554;BME280;40450;55.848;-3.572;2022-08-18T10:47:58;98707.37;;;14.95;88.94
54554;BME280;40450;55.848;-3.572;2022-08-18T10:50:25;98701.90;;;15.35;88.31
54554;BME280;40450;55.848;-3.572;2022-08-18T10:53:04;98699.54;;;14.37;90.22
54554;BME280;40450;55.848;-3.572;2022-08-18T10:55:34;98701.51;;;14.02;92.10
54554;BME280;40450;55.848;-3.572;2022-08-18T11:00:34;98688.05;;;13.65;92.83
54554;BME280;40450;55.848;-3.572;2022-08-18T11:03:08;98695.32;;;13.30;93.62
54554;BME280;40450;55.848;-3.572;2022-08-18T11:05:27;98690.72;;;13.75;92.80
54554;BME280;40450;55.848;-3.572;2022-08-18T11:08:00;98679.14;;;14.04;91.97
54554;BME280;40450;55.848;-3.572;2022-08-18T11:10:34;98668.87;;;13.49;93.43
54554;BME280;40450;55.848;-3.572;2022-08-18T11:13:04;98671.48;;;13.99;92.48
54554;BME280;40450;55.848;-3.572;2022-08-18T11:15:35;98674.11;;;14.02;92.57
54554;BME280;40450;55.848;-3.572;2022-08-18T11:18:11;98666.71;;;14.84;91.54
54554;BME280;40450;55.848;-3.572;2022-08-18T11:20:30;98663.11;;;14.92;90.69
54554;BME280;40450;55.848;-3.572;2022-08-18T11:23:00;98656.54;;;15.13;89.56
54554;BME280;40450;55.848;-3.572;2022-08-18T11:25:31;98657.97;;;15.90;88.44
54554;BME280;40450;55.848;-3.572;2022-08-18T11:27:59;98657.48;;;15.53;87.92
54554;BME280;40450;55.848;-3.572;2022-08-18T11:30:35;98658.18;;;15.24;89.24
54554;BME280;40450;55.848;-3.572;2022-08-18T11:32:59;98656.16;;;14.68;90.72
54554;BME280;40450;55.848;-3.572;2022-08-18T11:35:33;98653.29;;;14.42;91.81
54554;BME280;40450;55.848;-3.572;2022-08-18T11:38:02;98644.40;;;14.82;91.57
54554;BME280;40450;55.848;-3.572;2022-08-18T11:40:35;98644.12;;;15.05;90.38
54554;BME280;40450;55.848;-3.572;2022-08-18T11:43:04;98650.00;;;15.14;88.93
54554;BME280;40450;55.848;-3.572;2022-08-18T11:45:34;98641.37;;;14.50;91.43
54554;BME280;40450;55.848;-3.572;2022-08-18T11:48:10;98641.65;;;14.03;92.69
54554;BME280;40450;55.848;-3.572;2022-08-18T11:50:32;98636.07;;;14.88;91.31
54554;BME280;40450;55.848;-3.572;2022-08-18T11:53:12;98630.47;;;14.79;91.04
54554;BME280;40450;55.848;-3.572;2022-08-18T11:55:32;98641.39;;;15.10;90.35
54554;BME280;40450;55.848;-3.572;2022-08-18T11:58:03;98639.21;;;14.56;91.35
54554;BME280;40450;55.848;-3.572;2022-08-18T12:00:39;98632.52;;;14.22;92.32
54554;BME280;40450;55.848;-3.572;2022-08-18T12:03:18;98631.19;;;13.99;93.28
54554;BME280;40450;55.848;-3.572;2022-08-18T12:05:40;98635.38;;;14.80;92.01
54554;BME280;40450;55.848;-3.572;2022-08-18T12:08:04;98628.64;;;14.43;92.94
54554;BME280;40450;55.848;-3.572;2022-08-18T12:10:34;98631.93;;;14.68;92.15
54554;BME280;40450;55.848;-3.572;2022-08-18T12:13:06;98632.44;;;15.80;89.96
54554;BME280;40450;55.848;-3.572;2022-08-18T12:15:40;98636.20;;;16.66;87.31
54554;BME280;40450;55.848;-3.572;2022-08-18T12:18:05;98639.62;;;16.38;86.32
54554;BME280;40450;55.848;-3.572;2022-08-18T12:20:41;98636.42;;;16.06;88.03
54554;BME280;40450;55.848;-3.572;2022-08-18T12:23:06;98633.90;;;16.09;87.39
54554;BME280;40450;55.848;-3.572;2022-08-18T12:25:36;98628.95;;;15.95;88.05
54554;BME280;40450;55.848;-3.572;2022-08-18T12:28:06;98628.49;;;16.87;86.86
54554;BME280;40450;55.848;-3.572;2022-08-18T12:30:36;98625.17;;;16.00;88.00
54554;BME280;40450;55.848;-3.572;2022-08-18T12:33:08;98636.52;;;16.34;88.03
54554;BME280;40450;55.848;-3.572;2022-08-18T12:35:37;98634.74;;;16.51;87.41
54554;BME280;40450;55.848;-3.572;2022-08-18T12:38:08;98634.68;;;15.97;88.36
54554;BME280;40450;55.848;-3.572;2022-08-18T12:40:38;98632.58;;;16.69;86.99
54554;BME280;40450;55.848;-3.572;2022-08-18T12:43:08;98629.46;;;17.19;85.34
54554;BME280;40450;55.848;-3.572;2022-08-18T12:45:38;98623.36;;;16.75;85.57
54554;BME280;40450;55.848;-3.572;2022-08-18T12:48:09;98631.57;;;16.22;87.56
54554;BME280;40450;55.848;-3.572;2022-08-18T12:50:40;98635.67;;;16.28;88.00
54554;BME280;40450;55.848;-3.572;2022-08-18T12:53:10;98626.40;;;16.95;86.00
54554;BME280;40450;55.848;-3.572;2022-08-18T12:55:42;98617.85;;;16.38;87.87
54554;BME280;40450;55.848;-3.572;2022-08-18T12:58:10;98604.87;;;17.23;86.72
54554;BME280;40450;55.848;-3.572;2022-08-18T13:00:40;98607.60;;;17.15;85.68
54554;BME280;40450;55.848;-3.572;2022-08-18T13:03:11;98613.97;;;16.90;86.46
54554;BME280;40450;55.848;-3.572;2022-08-18T13:05:41;98616.31;;;16.90;86.57
54554;BME280;40450;55.848;-3.572;2022-08-18T13:08:15;98614.06;;;16.48;87.12
54554;BME280;40450;55.848;-3.572;2022-08-18T13:10:43;98606.77;;;17.12;86.80
54554;BME280;40450;55.848;-3.572;2022-08-18T13:13:13;98609.07;;;17.92;84.82
54554;BME280;40450;55.848;-3.572;2022-08-18T13:15:43;98617.21;;;17.15;85.23
54554;BME280;40450;55.848;-3.572;2022-08-18T13:18:13;98615.97;;;16.65;87.18
54554;BME280;40450;55.848;-3.572;2022-08-18T13:20:43;98614.03;;;16.99;86.54
54554;BME280;40450;55.848;-3.572;2022-08-18T13:23:13;98596.69;;;17.85;84.37
54554;BME280;40450;55.848;-3.572;2022-08-18T13:25:44;98601.93;;;17.29;85.03
54554;BME280;40450;55.848;-3.572;2022-08-18T13:28:14;98603.90;;;17.11;86.16
54554;BME280;40450;55.848;-3.572;2022-08-18T13:30:49;98608.05;;;16.72;86.89
54554;BME280;40450;55.848;-3.572;2022-08-18T13:33:14;98605.82;;;15.91;89.52
54554;BME280;40450;55.848;-3.572;2022-08-18T13:35:52;98601.85;;;16.99;87.29
54554;BME280;40450;55.848;-3.572;2022-08-18T13:38:16;98605.99;;;16.74;86.30
54554;BME280;40450;55.848;-3.572;2022-08-18T13:40:46;98599.61;;;16.61;87.29
54554;BME280;40450;55.848;-3.572;2022-08-18T13:43:17;98586.78;;;16.22;88.71